Time;durP1;ratioP1;P1;durP2;ratioP2;P2;SDS_P1;SDS_P2;PMS_P1;PMS_P2;Temp;Humidity;BMP_temperature;BMP_pressure;BME280_temperature;BME280_humidity;BME280_pressure;Samples;Min_cycle;Max_cycle;Signal;HPM_P1;HPM_P2
2021/11/06 00:00:20;;;;;;;19.80;8.60;;;;;;;;;;6369039;22;20167;-92
2021/11/06 00:03:33;;;;;;;18.63;9.23;;;;;;;;;;6368146;22;20159;-90
2021/11/06 00:06:46;;;;;;;17.27;8.47;;;;;;;;;;6353000;22;20167;-89
2021/11/06 00:09:58;;;;;;;19.17;9.77;;;;;;;;;;6369695;22;20156;-89
2021/11/06 00:13:10;;;;;;;17.83;8.60;;;;;;;;;;6368550;22;20231;-89
2021/11/06 00:16:21;;;;;;;13.40;7.57;;;;;;;;;;6369127;22;20210;-89
2021/11/06 00:19:34;;;;;;;17.03;8.30;;;;;;;;;;6368355;22;20306;-88
2021/11/06 00:22:47;;;;;;;18.60;9.00;;;;;;;;;;6367432;22;20255;-90
2021/11/06 00:25:58;;;;;;;20.13;9.43;;;;;;;;;;6366503;22;20172;-90
2021/11/06 00:29:11;;;;;;;17.43;8.27;;;;;;;;;;6366961;22;20219;-88
2021/11/06 00:32:22;;;;;;;19.17;8.90;;;;;;;;;;6368701;22;20171;-89
2021/11/06 00:35:34;;;;;;;15.97;8.30;;;;;;;;;;6367766;22;20219;-89
2021/11/06 00:38:47;;;;;;;16.07;8.03;;;;;;;;;;6366779;22;20163;-90
2021/11/06 00:41:59;;;;;;;18.10;8.70;;;;;;;;;;6367261;22;20164;-90
2021/11/06 00:45:11;;;;;;;20.30;8.67;;;;;;;;;;6368498;22;20171;-88
2021/11/06 00:48:22;;;;;;;18.77;9.00;;;;;;;;;;6366226;22;20218;-92
2021/11/06 00:51:33;;;;;;;16.83;8.50;;;;;;;;;;6367218;22;20168;-89
2021/11/06 00:54:47;;;;;;;15.80;8.77;;;;;;;;;;6365764;22;20210;-91
2021/11/06 00:57:59;;;;;;;16.70;8.83;;;;;;;;;;6366911;22;20222;-90
2021/11/06 01:01:10;;;;;;;20.63;9.03;;;;;;;;;;6368415;22;20556;-90
2021/11/06 01:04:23;;;;;;;15.10;8.60;;;;;;;;;;6370300;22;20172;-89
2021/11/06 01:07:35;;;;;;;15.10;8.00;;;;;;;;;;6368738;22;20217;-91
2021/11/06 01:10:49;;;;;;;17.97;8.53;;;;;;;;;;6369222;22;20573;-88
2021/11/06 01:14:01;;;;;;;15.93;8.37;;;;;;;;;;6368893;22;20171;-89
2021/11/06 01:17:12;;;;;;;16.30;8.90;;;;;;;;;;6368551;22;20183;-88
2021/11/06 01:20:25;;;;;;;18.53;8.87;;;;;;;;;;6369801;22;20282;-91
2021/11/06 01:23:37;;;;;;;19.53;9.73;;;;;;;;;;6370329;22;20167;-90
2021/11/06 01:26:53;;;;;;;14.47;8.37;;;;;;;;;;6385455;22;20171;-90
2021/11/06 01:30:05;;;;;;;18.97;8.77;;;;;;;;;;6369515;22;20193;-88
2021/11/06 01:33:17;;;;;;;14.80;8.23;;;;;;;;;;6367324;22;20224;-92
2021/11/06 01:36:29;;;;;;;20.30;9.53;;;;;;;;;;6368440;22;20168;-90
2021/11/06 01:39:41;;;;;;;19.50;9.50;;;;;;;;;;6368985;22;20171;-90
2021/11/06 01:42:54;;;;;;;18.07;8.77;;;;;;;;;;6368265;22;20496;-88
2021/11/06 01:46:07;;;;;;;17.87;9.23;;;;;;;;;;6367787;22;20167;-90
2021/11/06 01:49:20;;;;;;;15.70;8.67;;;;;;;;;;6368389;22;20176;-88
2021/11/06 01:52:31;;;;;;;19.23;8.93;;;;;;;;;;6368930;22;20176;-90
2021/11/06 01:55:44;;;;;;;18.40;9.17;;;;;;;;;;6367684;22;20163;-89
2021/11/06 01:58:57;;;;;;;19.47;9.23;;;;;;;;;;6367769;22;20168;-89
2021/11/06 02:02:08;;;;;;;19.10;9.17;;;;;;;;;;6366397;22;20168;-92
2021/11/06 02:05:21;;;;;;;19.37;8.90;;;;;;;;;;6367475;22;20175;-90
2021/11/06 02:08:33;;;;;;;19.37;9.53;;;;;;;;;;6367822;22;20195;-89
2021/11/06 02:11:49;;;;;;;17.33;9.73;;;;;;;;;;6366783;22;20206;-91
2021/11/06 02:15:02;;;;;;;21.80;10.10;;;;;;;;;;6368232;22;20685;-88
2021/11/06 02:18:14;;;;;;;19.17;9.50;;;;;;;;;;6368351;22;20236;-90
2021/11/06 02:21:28;;;;;;;16.77;9.80;;;;;;;;;;6368031;22;20151;-88
2021/11/06 02:24:40;;;;;;;17.57;9.33;;;;;;;;;;6385177;22;20164;-88
2021/11/06 02:27:52;;;;;;;21.10;9.53;;;;;;;;;;6369714;22;20277;-89
2021/11/06 02:31:04;;;;;;;19.77;9.87;;;;;;;;;;6369416;22;20167;-89
2021/11/06 02:34:16;;;;;;;16.77;9.40;;;;;;;;;;6368809;22;20168;-88
2021/11/06 02:37:29;;;;;;;17.23;9.03;;;;;;;;;;6366540;22;20167;-88
2021/11/06 02:40:40;;;;;;;18.53;9.67;;;;;;;;;;6367814;22;20494;-88
2021/11/06 02:43:53;;;;;;;26.33;9.90;;;;;;;;;;6367171;22;20175;-88
2021/11/06 02:47:04;;;;;;;21.17;9.80;;;;;;;;;;6367023;22;20241;-87
2021/11/06 02:50:17;;;;;;;19.60;9.53;;;;;;;;;;6367295;22;20148;-90
2021/11/06 02:53:30;;;;;;;19.40;9.40;;;;;;;;;;6365095;22;20293;-88
2021/11/06 02:56:41;;;;;;;17.73;9.33;;;;;;;;;;6367501;22;20235;-88
2021/11/06 02:59:54;;;;;;;21.10;9.77;;;;;;;;;;6367655;22;20246;-89
2021/11/06 03:03:06;;;;;;;18.23;9.87;;;;;;;;;;6368019;22;20168;-89
2021/11/06 03:06:19;;;;;;;22.13;9.67;;;;;;;;;;6366406;22;20167;-89
2021/11/06 03:09:37;;;;;;;19.67;9.27;;;;;;;;;;6366403;22;20214;-88
2021/11/06 03:12:49;;;;;;;20.70;9.60;;;;;;;;;;6366363;22;20172;-89
2021/11/06 03:16:00;;;;;;;17.97;9.50;;;;;;;;;;6368100;22;20210;-88
2021/11/06 03:19:11;;;;;;;17.30;9.47;;;;;;;;;;6367684;22;20234;-90
2021/11/06 03:22:24;;;;;;;17.83;9.70;;;;;;;;;;6366335;22;20182;-87
2021/11/06 03:25:37;;;;;;;18.17;9.37;;;;;;;;;;6370402;22;20152;-87
2021/11/06 03:28:48;;;;;;;17.17;8.93;;;;;;;;;;6367279;22;20255;-88
2021/11/06 03:32:01;;;;;;;19.80;9.13;;;;;;;;;;6367878;22;20163;-88
2021/11/06 03:35:13;;;;;;;20.97;10.10;;;;;;;;;;6365355;22;20269;-88
2021/11/06 03:38:25;;;;;;;18.07;10.07;;;;;;;;;;6367234;22;20164;-88
2021/11/06 03:41:38;;;;;;;18.37;9.43;;;;;;;;;;6367227;22;20163;-89
2021/11/06 03:44:50;;;;;;;24.53;9.93;;;;;;;;;;6367312;22;20175;-88
2021/11/06 03:48:01;;;;;;;17.67;10.23;;;;;;;;;;6366501;22;20179;-86
2021/11/06 03:51:13;;;;;;;18.90;10.63;;;;;;;;;;6366280;22;20198;-88
2021/11/06 03:54:26;;;;;;;19.70;11.27;;;;;;;;;;6366707;22;20163;-87
2021/11/06 03:57:40;;;;;;;24.57;11.23;;;;;;;;;;6367677;22;20163;-89
2021/11/06 04:00:51;;;;;;;21.50;11.10;;;;;;;;;;6366464;22;20163;-88
2021/11/06 04:04:04;;;;;;;21.53;11.67;;;;;;;;;;6366290;22;20627;-88
2021/11/06 04:07:17;;;;;;;21.97;12.10;;;;;;;;;;6366741;22;20167;-89
2021/11/06 04:10:30;;;;;;;25.03;11.97;;;;;;;;;;6365408;22;20298;-87
2021/11/06 04:13:43;;;;;;;32.47;12.73;;;;;;;;;;6366087;22;20210;-86
2021/11/06 04:16:56;;;;;;;24.10;12.47;;;;;;;;;;6366583;22;20191;-87
2021/11/06 04:20:08;;;;;;;23.43;12.57;;;;;;;;;;6366504;22;20210;-86
2021/11/06 04:23:20;;;;;;;25.63;12.60;;;;;;;;;;6366959;22;20242;-88
2021/11/06 04:26:32;;;;;;;23.27;12.50;;;;;;;;;;6366595;22;20163;-88
2021/11/06 04:29:45;;;;;;;30.40;12.97;;;;;;;;;;6365551;22;20192;-90
2021/11/06 04:33:02;;;;;;;26.97;13.13;;;;;;;;;;6364302;22;20232;-89
2021/11/06 04:36:13;;;;;;;25.67;12.77;;;;;;;;;;6368584;22;20190;-88
2021/11/06 04:39:24;;;;;;;24.73;12.40;;;;;;;;;;6368265;22;20168;-87
2021/11/06 04:42:37;;;;;;;26.97;12.83;;;;;;;;;;6369347;22;20175;-88
2021/11/06 04:45:50;;;;;;;33.03;13.30;;;;;;;;;;6369414;22;20711;-89
2021/11/06 04:49:02;;;;;;;24.30;13.10;;;;;;;;;;6368281;22;20192;-88
2021/11/06 04:52:14;;;;;;;23.43;12.63;;;;;;;;;;6369648;22;20168;-89
2021/11/06 04:55:25;;;;;;;24.50;12.50;;;;;;;;;;6369679;22;20221;-90
2021/11/06 04:58:37;;;;;;;23.40;12.37;;;;;;;;;;6367933;22;20198;-88
2021/11/06 05:01:55;;;;;;;23.57;12.50;;;;;;;;;;6368865;22;20172;-88
2021/11/06 05:05:08;;;;;;;22.70;11.13;;;;;;;;;;6368920;22;20236;-87
2021/11/06 05:08:20;;;;;;;22.27;11.00;;;;;;;;;;6368914;22;20183;-89
2021/11/06 05:11:31;;;;;;;24.83;11.63;;;;;;;;;;6368863;22;20216;-88
2021/11/06 05:14:42;;;;;;;21.77;11.63;;;;;;;;;;6369898;22;20225;-87
2021/11/06 05:17:56;;;;;;;21.83;11.50;;;;;;;;;;6367771;22;20168;-88
2021/11/06 05:21:07;;;;;;;21.63;11.60;;;;;;;;;;6367341;22;20183;-87
2021/11/06 05:24:19;;;;;;;21.60;11.50;;;;;;;;;;6368173;22;20167;-88
2021/11/06 05:27:32;;;;;;;21.03;11.70;;;;;;;;;;6369562;22;20188;-88
2021/11/06 05:30:44;;;;;;;22.93;11.87;;;;;;;;;;6367386;22;20192;-88
2021/11/06 05:34:00;;;;;;;24.67;11.27;;;;;;;;;;6367523;22;20242;-90
2021/11/06 05:37:11;;;;;;;24.87;13.03;;;;;;;;;;6369072;22;20180;-89
2021/11/06 05:40:24;;;;;;;27.30;13.37;;;;;;;;;;6368157;22;20168;-89
2021/11/06 05:43:35;;;;;;;27.03;12.10;;;;;;;;;;6366767;22;20586;-91
2021/11/06 05:46:46;;;;;;;21.80;11.20;;;;;;;;;;6366152;22;20183;-88
2021/11/06 05:49:59;;;;;;;21.87;11.80;;;;;;;;;;6368411;22;20187;-90
2021/11/06 05:53:10;;;;;;;26.27;11.67;;;;;;;;;;6366930;22;20159;-87
2021/11/06 05:56:23;;;;;;;29.57;11.47;;;;;;;;;;6367425;22;20171;-87
2021/11/06 05:59:35;;;;;;;26.33;12.20;;;;;;;;;;6368224;22;20176;-89
2021/11/06 06:02:49;;;;;;;27.27;11.17;;;;;;;;;;6376152;22;20168;-87
2021/11/06 06:06:02;;;;;;;28.10;12.30;;;;;;;;;;6368236;22;20257;-89
2021/11/06 06:09:15;;;;;;;23.73;11.50;;;;;;;;;;6366600;22;20234;-88
2021/11/06 06:12:27;;;;;;;19.80;10.60;;;;;;;;;;6367768;22;20172;-88
2021/11/06 06:15:38;;;;;;;23.80;11.53;;;;;;;;;;6367723;22;20216;-89
2021/11/06 06:18:51;;;;;;;23.33;11.97;;;;;;;;;;6367643;22;20236;-91
2021/11/06 06:22:04;;;;;;;22.63;12.03;;;;;;;;;;6369499;22;20203;-86
2021/11/06 06:25:16;;;;;;;22.50;11.20;;;;;;;;;;6368343;22;20194;-87
2021/11/06 06:28:27;;;;;;;21.23;10.87;;;;;;;;;;6366864;22;20476;-88
2021/11/06 06:31:39;;;;;;;23.80;11.87;;;;;;;;;;6369412;22;20194;-88
2021/11/06 06:34:55;;;;;;;23.57;12.00;;;;;;;;;;6369277;22;20164;-90
2021/11/06 06:38:08;;;;;;;23.33;11.93;;;;;;;;;;6367945;22;20222;-87
2021/11/06 06:41:20;;;;;;;25.20;12.50;;;;;;;;;;6366566;22;20163;-88
2021/11/06 06:44:32;;;;;;;21.30;10.70;;;;;;;;;;6367141;22;20202;-88
2021/11/06 06:47:43;;;;;;;21.93;12.00;;;;;;;;;;6366467;22;20168;-90
2021/11/06 06:50:54;;;;;;;19.67;10.70;;;;;;;;;;6365870;22;20242;-88
2021/11/06 06:54:08;;;;;;;23.23;11.90;;;;;;;;;;6365395;22;20275;-87
2021/11/06 06:57:19;;;;;;;23.13;12.10;;;;;;;;;;6366579;22;20246;-89
2021/11/06 07:00:31;;;;;;;20.00;10.87;;;;;;;;;;6367736;22;20457;-89
2021/11/06 07:03:45;;;;;;;22.70;11.37;;;;;;;;;;6366860;22;20182;-90
2021/11/06 07:06:58;;;;;;;22.30;11.30;;;;;;;;;;6368820;22;20164;-91
2021/11/06 07:10:12;;;;;;;22.13;11.00;;;;;;;;;;6369457;22;20187;-89
2021/11/06 07:13:34;;;;;;;20.50;10.87;;;;;;;;;;6369752;22;20168;-88
2021/11/06 07:16:45;;;;;;;23.30;11.43;;;;;;;;;;6367862;22;20261;-90
2021/11/06 07:19:58;;;;;;;20.37;10.73;;;;;;;;;;6367223;22;20540;-90
2021/11/06 07:23:10;;;;;;;21.73;10.80;;;;;;;;;;6368056;22;20160;-87
2021/11/06 07:26:23;;;;;;;20.40;10.60;;;;;;;;;;6367621;22;20156;-90
2021/11/06 07:33:13;;;;;;;25.23;11.67;;;;;;;;;;6367231;22;20257;-89
2021/11/06 07:36:25;;;;;;;27.07;12.10;;;;;;;;;;6364978;22;20237;-90
2021/11/06 07:39:37;;;;;;;23.90;11.57;;;;;;;;;;6364180;22;20237;-89
2021/11/06 07:42:50;;;;;;;23.30;11.87;;;;;;;;;;6365112;22;20180;-89
2021/11/06 07:46:01;;;;;;;28.30;13.13;;;;;;;;;;6364844;22;20183;-89
2021/11/06 07:49:13;;;;;;;29.47;14.00;;;;;;;;;;6364908;22;20225;-89
2021/11/06 07:52:25;;;;;;;31.23;13.63;;;;;;;;;;6366858;22;20168;-90
2021/11/06 07:55:37;;;;;;;31.70;15.17;;;;;;;;;;6368641;22;20168;-91
2021/11/06 07:58:51;;;;;;;32.70;14.10;;;;;;;;;;6368135;22;20175;-89
2021/11/06 08:02:07;;;;;;;30.57;13.83;;;;;;;;;;6367920;22;20218;-89
2021/11/06 08:05:19;;;;;;;31.83;13.77;;;;;;;;;;6367024;22;20171;-90
2021/11/06 08:08:32;;;;;;;29.10;13.20;;;;;;;;;;6366904;22;20250;-91
2021/11/06 08:11:48;;;;;;;31.93;12.33;;;;;;;;;;6366596;22;20164;-89
2021/11/06 08:15:01;;;;;;;30.33;13.50;;;;;;;;;;6367892;22;20171;-89
2021/11/06 08:18:12;;;;;;;36.43;13.47;;;;;;;;;;6365691;22;20247;-91
2021/11/06 08:21:24;;;;;;;31.10;12.73;;;;;;;;;;6366179;22;20234;-89
2021/11/06 08:24:39;;;;;;;28.87;13.03;;;;;;;;;;6366378;22;20228;-89
2021/11/06 08:27:55;;;;;;;33.70;13.27;;;;;;;;;;6365364;22;20216;-89
2021/11/06 08:31:08;;;;;;;35.30;13.47;;;;;;;;;;6369587;22;20196;-88
2021/11/06 08:34:24;;;;;;;29.83;13.27;;;;;;;;;;6366843;22;20483;-90
2021/11/06 08:37:37;;;;;;;28.77;12.77;;;;;;;;;;6367050;22;20172;-90
2021/11/06 08:40:50;;;;;;;29.47;13.20;;;;;;;;;;6366699;22;20210;-88
2021/11/06 08:44:03;;;;;;;30.70;13.87;;;;;;;;;;6367482;22;20233;-89
2021/11/06 08:47:16;;;;;;;28.83;12.73;;;;;;;;;;6366021;22;20201;-89
2021/11/06 08:50:31;;;;;;;32.37;14.33;;;;;;;;;;6367732;22;20245;-88
2021/11/06 08:53:45;;;;;;;32.57;13.73;;;;;;;;;;6365517;22;20160;-89
2021/11/06 08:56:56;;;;;;;38.90;14.63;;;;;;;;;;6365523;22;20168;-90
2021/11/06 09:00:11;;;;;;;34.87;14.77;;;;;;;;;;6365271;22;20492;-88
2021/11/06 09:03:25;;;;;;;33.37;15.63;;;;;;;;;;6363566;22;20281;-90
2021/11/06 09:06:45;;;;;;;35.47;14.47;;;;;;;;;;6348811;22;20172;-89
2021/11/06 09:09:56;;;;;;;33.53;14.93;;;;;;;;;;6367033;22;20196;-88
2021/11/06 09:13:09;;;;;;;32.63;12.98;;;;;;;;;;6364596;22;20221;-89
2021/11/06 09:16:21;;;;;;;37.23;15.30;;;;;;;;;;6364593;22;20283;-90
2021/11/06 09:19:34;;;;;;;32.03;14.38;;;;;;;;;;6363977;22;20222;-91
2021/11/06 09:22:46;;;;;;;38.90;15.27;;;;;;;;;;6367878;22;20316;-89
2021/11/06 09:26:00;;;;;;;34.73;14.93;;;;;;;;;;6366775;22;20171;-87
2021/11/06 09:29:13;;;;;;;39.23;13.87;;;;;;;;;;6367303;22;20160;-91
2021/11/06 09:32:25;;;;;;;35.10;15.17;;;;;;;;;;6368935;22;20184;-90
2021/11/06 09:35:43;;;;;;;38.60;15.20;;;;;;;;;;6366490;22;20167;-90
2021/11/06 09:38:55;;;;;;;36.13;14.90;;;;;;;;;;6366803;22;20452;-90
2021/11/06 09:42:07;;;;;;;33.00;14.53;;;;;;;;;;6368459;22;20194;-90
2021/11/06 09:45:18;;;;;;;31.80;14.03;;;;;;;;;;6370611;22;20649;-89
2021/11/06 09:48:31;;;;;;;37.60;14.60;;;;;;;;;;6368853;22;20164;-90
2021/11/06 09:51:49;;;;;;;32.38;14.75;;;;;;;;;;6365647;22;20271;-90
2021/11/06 09:55:01;;;;;;;31.27;13.52;;;;;;;;;;6367937;22;20210;-90
2021/11/06 09:58:13;;;;;;;34.72;13.75;;;;;;;;;;6370025;22;20168;-90
2021/11/06 10:01:25;;;;;;;32.13;13.82;;;;;;;;;;6370960;22;20164;-91
2021/11/06 10:04:37;;;;;;;30.40;13.82;;;;;;;;;;6368852;22;20172;-90
2021/11/06 10:07:50;;;;;;;29.65;13.30;;;;;;;;;;6369828;22;20246;-88
2021/11/06 10:11:02;;;;;;;27.95;13.48;;;;;;;;;;6369471;22;20894;-88
2021/11/06 10:14:16;;;;;;;31.98;13.80;;;;;;;;;;6368318;22;20168;-90
2021/11/06 10:17:32;;;;;;;29.98;13.68;;;;;;;;;;6368562;22;20271;-89
2021/11/06 10:20:45;;;;;;;25.38;12.35;;;;;;;;;;6368199;22;20160;-89
2021/11/06 10:23:58;;;;;;;31.10;13.80;;;;;;;;;;6370015;22;20171;-90
2021/11/06 10:27:15;;;;;;;31.10;12.80;;;;;;;;;;6369158;22;20175;-88
2021/11/06 10:30:28;;;;;;;32.63;15.00;;;;;;;;;;6370013;22;20191;-88
2021/11/06 10:33:51;;;;;;;38.92;15.65;;;;;;;;;;6368294;22;20234;-88
2021/11/06 10:37:05;;;;;;;35.83;14.48;;;;;;;;;;6370261;22;20152;-88
2021/11/06 10:40:20;;;;;;;29.40;13.90;;;;;;;;;;6369501;22;20172;-88
2021/11/06 10:43:35;;;;;;;41.22;15.55;;;;;;;;;;6367509;22;20163;-91
2021/11/06 10:46:52;;;;;;;35.05;14.75;;;;;;;;;;6367423;22;20190;-90
2021/11/06 10:50:08;;;;;;;35.42;14.75;;;;;;;;;;6366879;22;20254;-90
2021/11/06 10:53:36;;;;;;;31.17;14.05;;;;;;;;;;6369473;22;20168;-89
2021/11/06 10:56:55;;;;;;;28.95;13.80;;;;;;;;;;6366777;22;20622;-89
2021/11/06 11:00:09;;;;;;;34.17;15.55;;;;;;;;;;6368869;22;20160;-89
2021/11/06 11:03:30;;;;;;;33.50;13.07;;;;;;;;;;6369744;22;20179;-90
2021/11/06 11:06:46;;;;;;;24.73;11.95;;;;;;;;;;6367535;22;20202;-90
2021/11/06 11:10:00;;;;;;;24.63;11.00;;;;;;;;;;6366458;22;20163;-89
2021/11/06 11:13:14;;;;;;;28.08;12.07;;;;;;;;;;6366718;22;20160;-90
2021/11/06 11:16:27;;;;;;;23.90;11.57;;;;;;;;;;6366863;22;20191;-89
2021/11/06 11:19:40;;;;;;;25.23;11.82;;;;;;;;;;6366565;22;20255;-89
2021/11/06 11:23:08;;;;;;;26.73;12.18;;;;;;;;;;6366068;22;20159;-88
2021/11/06 11:26:22;;;;;;;26.90;11.93;;;;;;;;;;6366779;22;20225;-88
2021/11/06 11:29:37;;;;;;;23.60;11.13;;;;;;;;;;6365796;22;20170;-90
2021/11/06 11:32:53;;;;;;;24.63;12.20;;;;;;;;;;6367026;22;20578;-90
2021/11/06 11:36:06;;;;;;;24.58;11.32;;;;;;;;;;6364509;22;20211;-87
2021/11/06 11:39:19;;;;;;;24.85;11.57;;;;;;;;;;6365170;22;20171;-90
2021/11/06 11:42:39;;;;;;;23.25;11.23;;;;;;;;;;6365348;22;20167;-89
2021/11/06 11:45:58;;;;;;;22.60;11.32;;;;;;;;;;6365962;22;20180;-90
2021/11/06 11:49:10;;;;;;;22.88;11.48;;;;;;;;;;6366560;22;20164;-89
2021/11/06 11:52:33;;;;;;;23.17;11.13;;;;;;;;;;6366216;22;20179;-90
2021/11/06 11:55:46;;;;;;;23.35;11.30;;;;;;;;;;6367037;22;20164;-90
2021/11/06 11:58:58;;;;;;;22.42;10.95;;;;;;;;;;6367361;22;20164;-90
2021/11/06 12:02:22;;;;;;;29.92;12.52;;;;;;;;;;6366964;22;20159;-89
2021/11/06 12:05:37;;;;;;;25.65;11.65;;;;;;;;;;6365625;22;20190;-86
2021/11/06 12:08:49;;;;;;;27.17;11.93;;;;;;;;;;6366858;22;20230;-88
2021/11/06 12:12:02;;;;;;;25.90;10.93;;;;;;;;;;6368409;22;20317;-88
2021/11/06 12:15:13;;;;;;;28.88;11.23;;;;;;;;;;6365470;22;20167;-88
2021/11/06 12:18:41;;;;;;;23.98;10.63;;;;;;;;;;6366738;22;20168;-87
2021/11/06 12:22:07;;;;;;;25.80;11.68;;;;;;;;;;6368958;22;20163;-90
2021/11/06 12:25:20;;;;;;;24.83;10.82;;;;;;;;;;6369888;22;20161;-90
2021/11/06 12:28:31;;;;;;;23.17;10.90;;;;;;;;;;6368638;22;20606;-89
2021/11/06 12:31:44;;;;;;;26.35;12.20;;;;;;;;;;6367567;22;20200;-88
2021/11/06 12:34:57;;;;;;;23.80;11.40;;;;;;;;;;6367858;22;20239;-89
2021/11/06 12:38:11;;;;;;;19.65;9.70;;;;;;;;;;6369902;22;20175;-89
2021/11/06 12:41:27;;;;;;;23.85;10.50;;;;;;;;;;6367187;22;20494;-88
2021/11/06 12:44:51;;;;;;;22.45;11.00;;;;;;;;;;6340030;22;20180;-88
2021/11/06 12:48:11;;;;;;;23.90;11.35;;;;;;;;;;6366186;22;20167;-89
2021/11/06 12:51:24;;;;;;;23.70;10.85;;;;;;;;;;6367507;22;20191;-90
2021/11/06 12:54:39;;;;;;;23.98;11.38;;;;;;;;;;6365490;22;20175;-88
2021/11/06 12:57:52;;;;;;;21.80;10.45;;;;;;;;;;6367666;22;20163;-89
2021/11/06 13:01:20;;;;;;;21.55;10.52;;;;;;;;;;6369748;22;20222;-88
2021/11/06 13:04:35;;;;;;;23.65;10.85;;;;;;;;;;6369293;22;20168;-88
2021/11/06 13:07:46;;;;;;;21.52;11.25;;;;;;;;;;6366596;22;20205;-88
2021/11/06 13:11:00;;;;;;;23.90;10.98;;;;;;;;;;6366799;22;20195;-90
2021/11/06 13:14:11;;;;;;;23.27;11.18;;;;;;;;;;6368610;22;20168;-90
2021/11/06 13:17:25;;;;;;;27.67;12.43;;;;;;;;;;6367497;22;20260;-88
2021/11/06 13:20:37;;;;;;;21.52;10.60;;;;;;;;;;6368636;22;20171;-90
2021/11/06 13:23:55;;;;;;;23.80;10.88;;;;;;;;;;6365854;22;20175;-90
2021/11/06 13:27:08;;;;;;;30.40;14.45;;;;;;;;;;6368400;22;20151;-90
2021/11/06 13:30:30;;;;;;;24.95;11.88;;;;;;;;;;6369781;22;20172;-89
2021/11/06 13:33:44;;;;;;;26.63;11.23;;;;;;;;;;6367497;22;20167;-90
2021/11/06 13:36:56;;;;;;;29.15;11.82;;;;;;;;;;6366673;22;20172;-89
2021/11/06 13:40:08;;;;;;;24.85;11.13;;;;;;;;;;6367443;22;20221;-90
2021/11/06 13:43:23;;;;;;;24.30;11.93;;;;;;;;;;6366363;22;20164;-91
2021/11/06 13:46:36;;;;;;;22.27;10.63;;;;;;;;;;6367113;22;20236;-90
2021/11/06 13:49:54;;;;;;;23.90;10.82;;;;;;;;;;6365887;22;20151;-90
2021/11/06 13:53:06;;;;;;;22.75;11.15;;;;;;;;;;6366793;22;20391;-89
2021/11/06 13:56:17;;;;;;;23.42;10.82;;;;;;;;;;6365143;22;20171;-90
2021/11/06 13:59:40;;;;;;;26.20;12.25;;;;;;;;;;6367123;22;20175;-89
2021/11/06 14:02:53;;;;;;;26.95;11.60;;;;;;;;;;6381860;22;20167;-89
2021/11/06 14:06:05;;;;;;;22.58;11.20;;;;;;;;;;6365833;22;20670;-89
2021/11/06 14:09:18;;;;;;;24.17;10.57;;;;;;;;;;6365623;22;20260;-91
2021/11/06 14:12:37;;;;;;;23.73;10.55;;;;;;;;;;6368783;22;20203;-88
2021/11/06 14:15:51;;;;;;;24.92;11.55;;;;;;;;;;6366098;22;20191;-89
2021/11/06 14:19:06;;;;;;;23.98;11.43;;;;;;;;;;6366980;22;20496;-90
2021/11/06 14:22:26;;;;;;;40.72;17.25;;;;;;;;;;6366963;22;20614;-90
2021/11/06 14:25:40;;;;;;;30.60;13.75;;;;;;;;;;6365005;22;20167;-91
2021/11/06 14:28:53;;;;;;;28.75;13.93;;;;;;;;;;6366742;22;20175;-91
2021/11/06 14:32:09;;;;;;;22.63;10.95;;;;;;;;;;6369004;22;20745;-88
2021/11/06 14:35:43;;;;;;;23.75;11.32;;;;;;;;;;6367003;22;20244;-90
2021/11/06 14:38:56;;;;;;;22.30;10.52;;;;;;;;;;6368786;22;20171;-89
2021/11/06 14:42:10;;;;;;;25.30;10.00;;;;;;;;;;6368050;22;20214;-89
2021/11/06 14:45:23;;;;;;;21.85;10.52;;;;;;;;;;6368155;22;20167;-90
2021/11/06 14:48:51;;;;;;;24.38;11.00;;;;;;;;;;6367610;22;20232;-90
2021/11/06 14:52:04;;;;;;;22.25;10.85;;;;;;;;;;6364653;22;20237;-89
2021/11/06 14:55:16;;;;;;;22.85;11.43;;;;;;;;;;6365474;22;20163;-90
2021/11/06 14:58:42;;;;;;;21.25;10.82;;;;;;;;;;6367288;22;20167;-90
2021/11/06 15:01:54;;;;;;;24.80;11.05;;;;;;;;;;6367156;22;20156;-88
2021/11/06 15:05:08;;;;;;;23.58;9.85;;;;;;;;;;6365313;22;20181;-87
2021/11/06 15:08:22;;;;;;;22.27;10.15;;;;;;;;;;6368426;22;20167;-90
2021/11/06 15:11:33;;;;;;;22.83;9.95;;;;;;;;;;6366254;22;20229;-90
2021/11/06 15:14:45;;;;;;;24.48;11.07;;;;;;;;;;6364962;22;20663;-90
2021/11/06 15:17:58;;;;;;;25.25;10.38;;;;;;;;;;6366369;22;20198;-90
2021/11/06 15:21:13;;;;;;;19.87;10.20;;;;;;;;;;6367191;22;20159;-90
2021/11/06 15:24:26;;;;;;;21.67;10.33;;;;;;;;;;6366753;22;20267;-89
2021/11/06 15:27:38;;;;;;;23.30;10.73;;;;;;;;;;6367309;22;20183;-88
2021/11/06 15:30:50;;;;;;;25.37;10.70;;;;;;;;;;6367829;22;20151;-91
2021/11/06 15:34:03;;;;;;;24.13;11.07;;;;;;;;;;6367764;22;20598;-89
2021/11/06 15:37:16;;;;;;;25.83;10.73;;;;;;;;;;6367445;22;20229;-89
2021/11/06 15:40:29;;;;;;;27.07;11.37;;;;;;;;;;6367073;22;20171;-89
2021/11/06 15:43:42;;;;;;;29.13;12.00;;;;;;;;;;6366675;22;20241;-88
2021/11/06 15:46:54;;;;;;;24.20;10.53;;;;;;;;;;6365457;22;20168;-90
2021/11/06 15:50:07;;;;;;;23.77;11.37;;;;;;;;;;6368370;22;20490;-89
2021/11/06 15:53:20;;;;;;;33.60;12.60;;;;;;;;;;6366875;22;20192;-90
2021/11/06 15:56:35;;;;;;;25.97;11.63;;;;;;;;;;6367142;22;20176;-88
2021/11/06 15:59:47;;;;;;;24.97;10.57;;;;;;;;;;6367575;22;20213;-88
2021/11/06 16:03:00;;;;;;;27.03;11.27;;;;;;;;;;6366701;22;20176;-88
2021/11/06 16:06:13;;;;;;;24.93;10.80;;;;;;;;;;6368984;22;20172;-89
2021/11/06 16:09:26;;;;;;;31.33;11.97;;;;;;;;;;6367726;22;20164;-88
2021/11/06 16:12:39;;;;;;;29.80;11.67;;;;;;;;;;6366473;22;20207;-90
2021/11/06 16:15:55;;;;;;;34.90;15.13;;;;;;;;;;6366604;22;20260;-91
2021/11/06 16:19:07;;;;;;;29.40;13.90;;;;;;;;;;6366556;22;20165;-91
2021/11/06 16:22:22;;;;;;;36.77;14.60;;;;;;;;;;6366444;22;20164;-90
2021/11/06 16:29:10;;;;;;;34.10;14.73;;;;;;;;;;6364933;22;20164;-91
2021/11/06 16:32:25;;;;;;;35.97;15.67;;;;;;;;;;6369761;22;20199;-92
2021/11/06 16:35:42;;;;;;;35.40;14.50;;;;;;;;;;6367288;22;20293;-92
2021/11/06 16:38:55;;;;;;;35.23;15.30;;;;;;;;;;6366820;22;20171;-90
2021/11/06 16:42:08;;;;;;;33.93;14.23;;;;;;;;;;6369496;22;20497;-90
2021/11/06 16:45:19;;;;;;;40.40;16.93;;;;;;;;;;6368404;22;20286;-91
2021/11/06 16:48:30;;;;;;;31.50;13.83;;;;;;;;;;6367570;22;20551;-91
2021/11/06 16:51:41;;;;;;;33.87;14.27;;;;;;;;;;6366474;22;20167;-91
2021/11/06 16:54:54;;;;;;;27.63;12.33;;;;;;;;;;6370185;22;20222;-90
2021/11/06 16:58:07;;;;;;;29.63;11.20;;;;;;;;;;6367892;22;20187;-91
2021/11/06 17:01:24;;;;;;;24.23;11.23;;;;;;;;;;6368163;22;20177;-88
2021/11/06 17:04:36;;;;;;;29.10;12.53;;;;;;;;;;6367265;22;20262;-88
2021/11/06 17:07:50;;;;;;;31.13;12.23;;;;;;;;;;6368072;22;20167;-90
2021/11/06 17:11:04;;;;;;;31.97;13.63;;;;;;;;;;6365787;22;20493;-89
2021/11/06 17:14:19;;;;;;;34.33;14.03;;;;;;;;;;6368067;22;20185;-88
2021/11/06 17:17:30;;;;;;;34.63;13.43;;;;;;;;;;6368581;22;20535;-87
2021/11/06 17:20:42;;;;;;;35.00;14.63;;;;;;;;;;6371016;22;20298;-90
2021/11/06 17:23:54;;;;;;;37.50;15.20;;;;;;;;;;6371556;22;20275;-90
2021/11/06 17:27:08;;;;;;;42.93;16.30;;;;;;;;;;6370416;22;20172;-89
2021/11/06 17:30:22;;;;;;;43.77;16.53;;;;;;;;;;6370503;22;20176;-90
2021/11/06 17:33:36;;;;;;;37.57;15.43;;;;;;;;;;6368738;22;20184;-90
2021/11/06 17:36:49;;;;;;;36.30;15.07;;;;;;;;;;6367872;22;20218;-89
2021/11/06 17:40:00;;;;;;;32.87;13.70;;;;;;;;;;6368634;22;20160;-90
2021/11/06 17:43:12;;;;;;;33.20;13.47;;;;;;;;;;6368643;22;20210;-88
2021/11/06 17:46:26;;;;;;;33.23;13.30;;;;;;;;;;6368684;22;20200;-89
2021/11/06 17:49:44;;;;;;;33.77;13.30;;;;;;;;;;6367107;22;20251;-88
2021/11/06 17:53:03;;;;;;;48.43;18.27;;;;;;;;;;6367075;22;20302;-89
2021/11/06 17:56:14;;;;;;;38.10;16.20;;;;;;;;;;6368028;22;20180;-90
2021/11/06 17:59:26;;;;;;;33.03;13.43;;;;;;;;;;6369083;22;20187;-91
2021/11/06 18:02:41;;;;;;;33.70;13.83;;;;;;;;;;6369393;22;20167;-88
2021/11/06 18:05:53;;;;;;;33.67;13.20;;;;;;;;;;6369408;22;20168;-90
2021/11/06 18:09:05;;;;;;;32.47;13.97;;;;;;;;;;6369290;22;20172;-91
2021/11/06 18:12:19;;;;;;;31.23;13.83;;;;;;;;;;6369973;22;20211;-90
2021/11/06 18:15:32;;;;;;;34.87;13.70;;;;;;;;;;6367681;22;20211;-89
2021/11/06 18:18:45;;;;;;;34.00;13.47;;;;;;;;;;6367063;22;20164;-90
2021/11/06 18:21:57;;;;;;;36.70;13.90;;;;;;;;;;6368439;22;20210;-91
2021/11/06 18:25:09;;;;;;;36.50;14.53;;;;;;;;;;6365667;22;20168;-88
2021/11/06 18:28:21;;;;;;;37.27;14.73;;;;;;;;;;6366310;22;20239;-90
2021/11/06 18:31:34;;;;;;;36.57;14.80;;;;;;;;;;6365730;22;20160;-89
2021/11/06 18:34:49;;;;;;;34.47;13.37;;;;;;;;;;6364727;22;20168;-87
2021/11/06 18:38:04;;;;;;;39.03;13.13;;;;;;;;;;6366028;22;20168;-89
2021/11/06 18:41:19;;;;;;;52.90;20.00;;;;;;;;;;6368047;22;20172;-90
2021/11/06 18:44:34;;;;;;;34.50;13.93;;;;;;;;;;6368302;22;20148;-91
2021/11/06 18:47:49;;;;;;;30.53;13.13;;;;;;;;;;6367533;22;20172;-90
2021/11/06 18:51:02;;;;;;;28.33;12.73;;;;;;;;;;6367907;22;20172;-88
2021/11/06 18:54:15;;;;;;;28.90;13.03;;;;;;;;;;6365619;22;20191;-91